Time;durP1;ratioP1;P1;durP2;ratioP2;P2;SDS_P1;SDS_P2;PMS_P1;PMS_P2;Temp;Humidity;BMP_temperature;BMP_pressure;BME280_temperature;BME280_humidity;BME280_pressure;Samples;Min_cycle;Max_cycle;Signal;HPM_P1;HPM_P2
2022/03/19 00:00:51;;;;;;;14.90;3.22;;;3.50;99.90;;;;;;5121381;27;20661;-86
2022/03/19 00:03:18;;;;;;;14.80;2.40;;;3.40;99.90;;;;;;5111625;27;20039;-86
2022/03/19 00:05:44;;;;;;;17.20;2.92;;;3.40;99.90;;;;;;5122846;27;20043;-86
2022/03/19 00:08:11;;;;;;;16.42;2.88;;;3.40;99.90;;;;;;5135708;27;20038;-86
2022/03/19 00:10:37;;;;;;;11.88;2.22;;;3.30;99.90;;;;;;5112262;27;20507;-86
2022/03/19 00:13:06;;;;;;;16.63;2.70;;;3.30;99.90;;;;;;5138140;27;20047;-86
2022/03/19 00:15:34;;;;;;;16.50;2.55;;;3.30;99.90;;;;;;5136936;27;20054;-86
2022/03/19 00:17:59;;;;;;;16.73;3.00;;;3.30;99.90;;;;;;5139814;27;20053;-85
2022/03/19 00:20:25;;;;;;;13.88;2.35;;;3.30;99.90;;;;;;5118637;27;20054;-85
2022/03/19 00:22:51;;;;;;;16.48;2.85;;;3.30;99.90;;;;;;5097794;27;20045;-85
2022/03/19 00:25:17;;;;;;;16.05;2.72;;;3.20;99.90;;;;;;5139316;27;20501;-85
2022/03/19 00:27:42;;;;;;;11.75;2.47;;;3.20;99.90;;;;;;5114758;27;20030;-86
2022/03/19 00:30:09;;;;;;;13.00;2.90;;;3.10;99.90;;;;;;5138498;27;20039;-85
2022/03/19 00:32:35;;;;;;;11.77;3.13;;;3.10;99.90;;;;;;5115326;27;20053;-86
2022/03/19 00:35:02;;;;;;;12.40;2.33;;;3.10;99.90;;;;;;5113048;27;20054;-86
2022/03/19 00:37:27;;;;;;;11.90;2.13;;;3.00;99.90;;;;;;5098511;27;20076;-86
2022/03/19 00:39:53;;;;;;;19.05;2.63;;;2.90;99.90;;;;;;5135130;27;20252;-85
2022/03/19 00:42:19;;;;;;;15.60;2.70;;;2.90;99.90;;;;;;5121632;27;20035;-86
2022/03/19 00:44:47;;;;;;;15.15;2.40;;;2.90;99.90;;;;;;5114439;27;20039;-85
2022/03/19 00:47:12;;;;;;;13.27;2.80;;;2.90;99.90;;;;;;5094957;27;20149;-85
2022/03/19 00:49:38;;;;;;;12.52;2.22;;;2.80;99.90;;;;;;5117729;27;20546;-86
2022/03/19 00:52:04;;;;;;;13.35;1.85;;;2.80;99.90;;;;;;5103595;27;20543;-85
2022/03/19 00:54:30;;;;;;;17.58;2.47;;;2.80;99.90;;;;;;5120428;27;20034;-85
2022/03/19 00:56:56;;;;;;;13.57;2.30;;;2.80;99.90;;;;;;5098644;27;20050;-84
2022/03/19 00:59:21;;;;;;;17.35;2.50;;;2.80;99.90;;;;;;5135913;27;20398;-86
2022/03/19 01:01:47;;;;;;;15.00;2.60;;;2.70;99.90;;;;;;5115900;27;20034;-86
2022/03/19 01:04:13;;;;;;;13.93;2.22;;;3.10;99.90;;;;;;5100834;27;20779;-85
2022/03/19 01:06:39;;;;;;;14.98;2.38;;;2.60;99.90;;;;;;5112166;27;20043;-85
2022/03/19 01:09:05;;;;;;;10.00;2.20;;;2.60;99.90;;;;;;5131661;27;20039;-86
2022/03/19 01:11:31;;;;;;;14.40;2.55;;;2.50;99.90;;;;;;5109928;27;20570;-86
2022/03/19 01:13:57;;;;;;;16.02;2.33;;;2.50;99.90;;;;;;5112391;27;20043;-85
2022/03/19 01:16:25;;;;;;;18.00;2.63;;;2.50;99.90;;;;;;5101016;27;20062;-86
2022/03/19 01:18:51;;;;;;;12.75;2.33;;;2.50;99.90;;;;;;5115183;27;20062;-85
2022/03/19 01:21:18;;;;;;;10.50;2.08;;;2.50;99.90;;;;;;5135536;27;20043;-86
2022/03/19 01:23:44;;;;;;;13.43;2.17;;;2.50;99.90;;;;;;5135263;27;20074;-86
2022/03/19 01:26:11;;;;;;;15.65;2.67;;;2.40;99.90;;;;;;5118137;27;20083;-86
2022/03/19 01:28:38;;;;;;;11.68;2.35;;;2.40;99.90;;;;;;5113033;27;20045;-86
2022/03/19 01:31:06;;;;;;;16.58;2.55;;;2.40;99.90;;;;;;5119792;27;20159;-86
2022/03/19 01:33:32;;;;;;;18.08;2.70;;;2.40;99.90;;;;;;5099243;27;20038;-86
2022/03/19 01:35:58;;;;;;;9.85;1.77;;;3.50;99.90;;;;;;5111144;27;20039;-85
2022/03/19 01:38:24;;;;;;;14.05;2.83;;;3.30;99.90;;;;;;5117261;27;20038;-86
2022/03/19 01:40:51;;;;;;;18.27;2.33;;;2.40;99.90;;;;;;5113526;27;20595;-86
2022/03/19 01:43:16;;;;;;;13.00;1.85;;;2.40;99.90;;;;;;5114027;27;20212;-86
2022/03/19 01:45:42;;;;;;;26.25;3.00;;;2.30;99.90;;;;;;5112418;27;20047;-85
2022/03/19 01:48:08;;;;;;;15.88;2.97;;;2.30;99.90;;;;;;5109568;27;20882;-85
2022/03/19 01:50:39;;;;;;;21.35;3.40;;;2.30;99.90;;;;;;5116149;27;20046;-85
2022/03/19 01:53:05;;;;;;;17.58;2.50;;;3.40;99.90;;;;;;5114760;27;20034;-86
2022/03/19 01:55:32;;;;;;;13.27;2.13;;;2.30;99.90;;;;;;5132282;27;20053;-85
2022/03/19 01:57:59;;;;;;;13.40;1.90;;;2.30;99.90;;;;;;5102370;27;20046;-85
2022/03/19 02:00:25;;;;;;;16.00;2.53;;;2.30;99.90;;;;;;5132270;27;20378;-85
2022/03/19 02:02:53;;;;;;;14.40;2.03;;;2.30;99.90;;;;;;5137226;27;20151;-85
2022/03/19 02:05:21;;;;;;;12.85;2.83;;;2.30;99.90;;;;;;5100674;27;20046;-85
2022/03/19 02:07:48;;;;;;;13.23;1.83;;;2.20;99.90;;;;;;5105681;27;20038;-85
2022/03/19 02:10:15;;;;;;;16.65;2.88;;;2.20;99.90;;;;;;5120309;27;20054;-85
2022/03/19 02:12:41;;;;;;;16.80;2.45;;;2.30;99.90;;;;;;5138730;27;20117;-85
2022/03/19 02:15:09;;;;;;;13.48;2.53;;;2.20;99.90;;;;;;5101160;27;20034;-86
2022/03/19 02:17:38;;;;;;;12.20;3.00;;;2.20;99.90;;;;;;5102311;27;20035;-86
2022/03/19 02:20:07;;;;;;;11.70;1.90;;;2.50;99.90;;;;;;5105268;27;20407;-86
2022/03/19 02:22:36;;;;;;;11.63;2.28;;;2.20;99.90;;;;;;5110158;27;20061;-86
2022/03/19 02:27:47;;;;;;;13.50;2.15;;;2.20;99.90;;;;;;5101113;27;20471;-86
2022/03/19 02:30:15;;;;;;;13.25;2.25;;;2.20;99.90;;;;;;5141257;27;20074;-86
2022/03/19 02:32:49;;;;;;;14.68;2.55;;;2.20;99.90;;;;;;5110888;27;20046;-85
2022/03/19 02:35:17;;;;;;;14.60;2.47;;;3.10;99.90;;;;;;5107565;27;20050;-85
2022/03/19 02:37:47;;;;;;;12.25;2.03;;;1.90;99.90;;;;;;5108499;27;20039;-86
2022/03/19 02:40:18;;;;;;;17.83;2.53;;;2.10;99.90;;;;;;5109581;27;20046;-85
2022/03/19 02:42:51;;;;;;;9.32;2.20;;;2.20;99.90;;;;;;5100786;27;20051;-86
2022/03/19 02:45:18;;;;;;;15.20;2.20;;;2.20;99.90;;;;;;5133364;27;20050;-86
2022/03/19 02:47:59;;;;;;;17.38;2.75;;;2.80;99.90;;;;;;5135612;27;20046;-86
2022/03/19 02:50:31;;;;;;;14.02;2.10;;;2.10;99.90;;;;;;5119816;27;20073;-86
2022/03/19 02:52:58;;;;;;;10.30;2.50;;;2.10;99.90;;;;;;5096296;27;20348;-86
2022/03/19 02:55:25;;;;;;;14.27;2.00;;;2.10;99.90;;;;;;5109232;28;20043;-86
2022/03/19 02:57:50;;;;;;;13.55;2.00;;;2.00;99.90;;;;;;5115507;27;20039;-85
2022/03/19 03:00:16;;;;;;;14.50;2.88;;;2.00;99.90;;;;;;5114703;27;20046;-86
2022/03/19 03:02:42;;;;;;;12.27;1.92;;;2.00;99.90;;;;;;5103868;27;20143;-85
2022/03/19 03:05:11;;;;;;;13.07;2.88;;;2.00;99.90;;;;;;5079200;27;20050;-86
2022/03/19 03:07:37;;;;;;;15.32;2.25;;;1.90;99.90;;;;;;5132531;27;20074;-85
2022/03/19 03:10:07;;;;;;;16.45;2.35;;;2.80;99.90;;;;;;5116565;27;20097;-85
2022/03/19 03:12:36;;;;;;;11.93;2.50;;;1.90;99.90;;;;;;5112566;27;20050;-86
2022/03/19 03:15:06;;;;;;;18.92;2.80;;;1.90;99.90;;;;;;5100618;27;20066;-85
2022/03/19 03:17:33;;;;;;;12.23;2.75;;;1.90;99.90;;;;;;5113469;27;20042;-85
2022/03/19 03:20:04;;;;;;;13.70;3.10;;;1.90;99.90;;;;;;5090686;27;20514;-85
2022/03/19 03:22:37;;;;;;;15.48;3.40;;;2.00;99.90;;;;;;5125244;27;20055;-86
2022/03/19 03:25:04;;;;;;;14.23;3.10;;;2.10;99.90;;;;;;5105322;27;20039;-85
2022/03/19 03:27:32;;;;;;;17.48;3.65;;;2.20;99.90;;;;;;5088088;27;20042;-86
2022/03/19 03:29:58;;;;;;;24.85;4.07;;;2.20;99.90;;;;;;5072732;27;20082;-86
2022/03/19 03:32:23;;;;;;;19.90;4.03;;;2.30;99.90;;;;;;5106233;27;20078;-86
2022/03/19 03:34:49;;;;;;;20.70;4.60;;;2.40;99.90;;;;;;5106076;27;20104;-85
2022/03/19 03:37:18;;;;;;;20.15;4.10;;;2.40;99.90;;;;;;5106848;27;20081;-85
2022/03/19 03:39:44;;;;;;;18.08;4.07;;;2.40;99.90;;;;;;5105152;27;20071;-85
2022/03/19 03:42:10;;;;;;;15.88;3.30;;;2.40;99.90;;;;;;5126715;27;20108;-85
2022/03/19 03:44:39;;;;;;;16.42;3.88;;;2.50;99.90;;;;;;5124271;27;20514;-85
2022/03/19 03:47:05;;;;;;;20.90;3.53;;;2.50;99.90;;;;;;5110413;27;20414;-85
2022/03/19 03:49:31;;;;;;;21.10;4.50;;;2.50;99.90;;;;;;5106757;27;20039;-85
2022/03/19 03:51:57;;;;;;;17.70;4.28;;;2.50;99.90;;;;;;5093589;27;20039;-86
2022/03/19 03:54:23;;;;;;;14.35;4.55;;;2.50;99.90;;;;;;5108013;27;20119;-86
2022/03/19 03:56:50;;;;;;;16.05;3.72;;;2.50;99.90;;;;;;5106928;27;20115;-85
2022/03/19 03:59:15;;;;;;;18.42;3.88;;;2.50;99.90;;;;;;5089457;27;20063;-86
2022/03/19 04:01:44;;;;;;;24.75;4.22;;;3.50;99.90;;;;;;5087774;27;20522;-86
2022/03/19 04:04:09;;;;;;;18.73;4.00;;;2.40;99.90;;;;;;5101170;27;21602;-86
2022/03/19 04:06:35;;;;;;;19.05;4.63;;;2.40;99.90;;;;;;5086991;27;20047;-87
2022/03/19 04:09:01;;;;;;;13.15;4.35;;;2.40;99.90;;;;;;5088854;27;20434;-86
2022/03/19 04:11:26;;;;;;;17.75;4.53;;;2.30;99.90;;;;;;5109511;27;20483;-86
2022/03/19 04:13:55;;;;;;;13.00;3.70;;;2.40;99.90;;;;;;5092095;27;20062;-85
2022/03/19 04:16:21;;;;;;;16.85;4.03;;;2.40;99.90;;;;;;5110464;27;20051;-85
2022/03/19 04:18:47;;;;;;;18.13;3.97;;;2.30;99.90;;;;;;5128183;27;20085;-85
2022/03/19 04:21:13;;;;;;;20.55;5.00;;;2.30;99.90;;;;;;5125151;27;20074;-86
2022/03/19 04:23:41;;;;;;;17.77;4.60;;;2.30;99.90;;;;;;5138001;27;20086;-86
2022/03/19 04:26:07;;;;;;;18.65;4.50;;;2.40;99.90;;;;;;5121659;27;20058;-86
2022/03/19 04:28:32;;;;;;;20.95;4.78;;;2.40;99.90;;;;;;5117593;27;20050;-85
2022/03/19 04:30:58;;;;;;;19.58;4.45;;;2.30;99.90;;;;;;5121761;27;20110;-86
2022/03/19 04:33:25;;;;;;;14.73;4.55;;;3.10;99.90;;;;;;5107067;27;20500;-86
2022/03/19 04:38:35;;;;;;;22.33;4.50;;;2.30;99.90;;;;;;5125835;27;20675;-86
2022/03/19 04:41:14;;;;;;;13.63;4.40;;;2.30;99.90;;;;;;5138527;27;20047;-85
2022/03/19 04:43:40;;;;;;;12.55;4.60;;;2.30;99.90;;;;;;5112744;27;20099;-86
2022/03/19 04:46:08;;;;;;;19.95;5.18;;;2.30;99.90;;;;;;5147633;27;20121;-86
2022/03/19 04:48:37;;;;;;;17.67;4.65;;;2.30;99.90;;;;;;5107326;27;20483;-86
2022/03/19 04:51:06;;;;;;;20.65;4.88;;;2.30;99.90;;;;;;5143050;27;20488;-86
2022/03/19 04:53:41;;;;;;;21.60;5.28;;;2.30;99.90;;;;;;5107427;27;20125;-86
2022/03/19 04:56:07;;;;;;;26.85;6.40;;;2.40;99.90;;;;;;5141062;27;20039;-86
2022/03/19 04:58:37;;;;;;;21.77;5.30;;;2.40;99.90;;;;;;5106683;27;20375;-86
2022/03/19 05:01:02;;;;;;;19.42;5.60;;;2.30;99.90;;;;;;5122257;27;20046;-86
2022/03/19 05:03:28;;;;;;;23.80;5.68;;;2.30;99.90;;;;;;5108887;27;20437;-86
2022/03/19 05:05:55;;;;;;;20.15;5.32;;;2.70;99.90;;;;;;5122401;27;20031;-86
2022/03/19 05:08:21;;;;;;;26.52;6.18;;;2.30;99.90;;;;;;5116204;27;20042;-86
2022/03/19 05:13:31;;;;;;;23.40;6.18;;;2.30;99.90;;;;;;5138780;27;20060;-86
2022/03/19 05:15:56;;;;;;;20.00;6.65;;;2.30;99.90;;;;;;5102327;27;20042;-86
2022/03/19 05:18:23;;;;;;;25.50;6.80;;;2.20;99.90;;;;;;5121405;27;20125;-86
2022/03/19 05:20:49;;;;;;;23.10;6.53;;;3.30;99.90;;;;;;5142174;27;20132;-86
2022/03/19 05:23:14;;;;;;;24.73;6.20;;;2.20;99.90;;;;;;5140258;27;20139;-86
2022/03/19 05:25:40;;;;;;;22.95;7.43;;;2.50;99.90;;;;;;5140303;27;20079;-86
2022/03/19 05:28:06;;;;;;;20.67;6.88;;;2.20;99.90;;;;;;5126635;27;20197;-86
2022/03/19 05:30:31;;;;;;;22.20;7.00;;;2.20;99.90;;;;;;5125813;27;20042;-86
2022/03/19 05:32:58;;;;;;;19.85;6.50;;;2.20;99.90;;;;;;5122309;27;20566;-87
2022/03/19 05:35:25;;;;;;;22.65;7.63;;;2.20;99.90;;;;;;5133123;27;20118;-86
2022/03/19 05:37:50;;;;;;;21.10;6.75;;;2.80;99.90;;;;;;5133793;27;20123;-85
2022/03/19 05:40:17;;;;;;;28.92;7.53;;;3.10;99.90;;;;;;5120127;27;20129;-86
2022/03/19 05:42:44;;;;;;;22.95;8.23;;;2.20;99.90;;;;;;5125528;27;20154;-87
2022/03/19 05:45:10;;;;;;;22.95;7.35;;;2.20;99.90;;;;;;5121654;27;20045;-86
2022/03/19 05:47:38;;;;;;;24.67;7.18;;;2.20;99.90;;;;;;5106764;27;20042;-86
2022/03/19 05:50:07;;;;;;;21.98;8.25;;;2.20;99.90;;;;;;5117226;27;20042;-86
2022/03/19 05:52:33;;;;;;;19.65;7.53;;;2.30;99.90;;;;;;5130287;27;20045;-87
2022/03/19 05:54:59;;;;;;;26.80;7.55;;;2.40;99.90;;;;;;5112240;27;20074;-86
2022/03/19 05:57:25;;;;;;;29.60;8.68;;;2.40;99.90;;;;;;5118839;27;20214;-86
2022/03/19 05:59:50;;;;;;;27.95;8.38;;;3.30;99.90;;;;;;5111652;27;20039;-86
2022/03/19 06:02:16;;;;;;;28.67;8.52;;;2.50;99.90;;;;;;5137113;27;20050;-87
2022/03/19 06:04:42;;;;;;;24.17;7.43;;;2.50;99.90;;;;;;5096664;27;20064;-86
2022/03/19 06:07:07;;;;;;;23.92;8.07;;;2.60;99.90;;;;;;5100706;27;20035;-86
2022/03/19 06:09:35;;;;;;;25.00;7.97;;;2.60;99.90;;;;;;5113919;27;20134;-86
2022/03/19 06:12:01;;;;;;;22.42;8.82;;;3.00;99.90;;;;;;5125738;27;20041;-86
2022/03/19 06:14:27;;;;;;;24.17;7.85;;;3.80;99.90;;;;;;5094721;27;20043;-86
2022/03/19 06:16:55;;;;;;;28.70;7.57;;;5.50;99.90;;;;;;5111974;27;20894;-86
2022/03/19 06:19:21;;;;;;;18.85;6.50;;;5.40;99.90;;;;;;5128562;27;20050;-86
2022/03/19 06:21:47;;;;;;;25.77;7.63;;;5.90;99.90;;;;;;5082858;27;20624;-86
2022/03/19 06:24:13;;;;;;;23.02;6.43;;;6.20;99.90;;;;;;5122841;27;20415;-85
2022/03/19 06:26:39;;;;;;;20.35;6.35;;;6.50;99.90;;;;;;5107095;27;20050;-86
2022/03/19 06:29:05;;;;;;;19.23;6.22;;;7.10;99.90;;;;;;5092940;27;20493;-86
2022/03/19 06:31:31;;;;;;;16.50;5.95;;;7.80;99.90;;;;;;5101421;27;20079;-86
2022/03/19 06:33:57;;;;;;;17.50;5.88;;;8.50;99.90;;;;;;5117627;27;20396;-86
2022/03/19 06:39:07;;;;;;;16.58;6.55;;;9.50;99.90;;;;;;5110477;27;20611;-86
2022/03/19 06:41:33;;;;;;;20.63;5.85;;;10.00;99.90;;;;;;5086844;27;20072;-86
2022/03/19 06:43:59;;;;;;;17.20;5.20;;;10.30;99.90;;;;;;5106841;27;20130;-86
2022/03/19 06:46:25;;;;;;;17.35;5.38;;;11.10;99.90;;;;;;5089773;27;20038;-86
2022/03/19 06:48:51;;;;;;;19.58;6.57;;;10.60;99.90;;;;;;5098378;27;20133;-87
2022/03/19 06:51:18;;;;;;;18.58;6.03;;;10.40;99.90;;;;;;5125992;27;20122;-86
2022/03/19 06:53:44;;;;;;;14.55;5.20;;;10.90;99.90;;;;;;5112955;27;20129;-86
2022/03/19 06:56:10;;;;;;;19.38;5.95;;;10.80;99.90;;;;;;5114072;27;20622;-86
2022/03/19 06:58:36;;;;;;;23.35;6.55;;;10.10;99.90;;;;;;5113541;27;20043;-86
2022/03/19 07:01:09;;;;;;;19.92;5.35;;;9.40;99.90;;;;;;5111712;27;20043;-86
2022/03/19 07:03:34;;;;;;;21.30;6.22;;;8.80;99.90;;;;;;5098129;27;20047;-86
2022/03/19 07:06:00;;;;;;;19.70;6.25;;;8.30;99.90;;;;;;5112595;27;20134;-86
2022/03/19 07:08:26;;;;;;;19.65;6.07;;;7.90;99.90;;;;;;5119362;27;20087;-86
2022/03/19 07:10:52;;;;;;;18.02;6.28;;;7.80;99.90;;;;;;5116171;27;20179;-86
2022/03/19 07:13:20;;;;;;;17.85;5.07;;;9.10;99.90;;;;;;5117625;27;20062;-86
2022/03/19 07:15:46;;;;;;;19.48;6.28;;;10.50;99.90;;;;;;5129592;27;20461;-86
2022/03/19 07:18:12;;;;;;;15.43;4.90;;;11.30;99.90;;;;;;5098786;27;20047;-86
2022/03/19 07:20:38;;;;;;;17.80;4.85;;;11.90;99.90;;;;;;5114256;27;20041;-87
2022/03/19 07:23:07;;;;;;;18.05;5.10;;;12.20;99.90;;;;;;5113750;27;20035;-86
2022/03/19 07:25:35;;;;;;;16.30;5.18;;;12.90;99.90;;;;;;5118648;27;20032;-88
2022/03/19 07:28:04;;;;;;;16.80;4.88;;;13.50;99.90;;;;;;5135410;27;20022;-83
2022/03/19 07:30:30;;;;;;;15.25;5.10;;;13.60;99.90;;;;;;5116649;27;20089;-86
2022/03/19 07:32:56;;;;;;;14.98;4.18;;;13.80;99.90;;;;;;5128505;27;20070;-82
2022/03/19 07:35:23;;;;;;;14.68;4.63;;;14.40;99.90;;;;;;5126151;27;20130;-87
2022/03/19 07:37:49;;;;;;;17.20;4.82;;;15.00;99.90;;;;;;5113131;27;20046;-85
2022/03/19 07:41:45;;;;;;;15.30;4.38;;;15.40;97.90;;;;;;5103853;27;20047;-87
2022/03/19 07:43:12;;;;;;;16.98;4.35;;;15.70;98.20;;;;;;5130388;27;20304;-90
2022/03/19 07:45:39;;;;;;;16.70;4.45;;;15.90;94.00;;;;;;5100248;27;20039;-84
2022/03/19 07:48:06;;;;;;;15.07;4.45;;;16.10;88.90;;;;;;5108947;27;20138;-86
2022/03/19 07:50:32;;;;;;;18.20;4.75;;;14.40;94.30;;;;;;5126663;27;20046;-83
2022/03/19 07:52:58;;;;;;;15.40;4.78;;;13.20;98.80;;;;;;5110466;27;20062;-86
2022/03/19 07:55:24;;;;;;;24.27;5.65;;;12.10;99.30;;;;;;5127818;27;20212;-84
2022/03/19 07:57:51;;;;;;;13.68;4.50;;;11.20;99.90;;;;;;5125463;27;20039;-85
2022/03/19 08:00:16;;;;;;;19.48;5.05;;;10.60;99.90;;;;;;5091984;27;20050;-84
2022/03/19 08:02:43;;;;;;;22.90;4.65;;;10.20;99.90;;;;;;5109219;27;20502;-84
2022/03/19 08:05:10;;;;;;;16.13;4.00;;;10.40;99.90;;;;;;5098138;27;20050;-85
2022/03/19 08:07:37;;;;;;;17.05;4.22;;;9.80;99.90;;;;;;5127515;27;20042;-85
2022/03/19 08:10:08;;;;;;;18.08;4.70;;;10.40;99.90;;;;;;5109040;27;20450;-84
2022/03/19 08:12:35;;;;;;;19.08;4.22;;;9.60;99.90;;;;;;5129497;27;20055;-84
2022/03/19 08:15:06;;;;;;;16.02;4.20;;;9.50;99.90;;;;;;5125118;27;20247;-84
2022/03/19 08:17:33;;;;;;;13.98;4.57;;;9.50;99.90;;;;;;5127869;27;20483;-85
2022/03/19 08:20:00;;;;;;;18.08;4.85;;;9.60;99.90;;;;;;5109906;27;20046;-84
2022/03/19 08:22:26;;;;;;;12.80;3.92;;;9.70;99.90;;;;;;5118489;27;20079;-85
2022/03/19 08:24:53;;;;;;;17.15;4.40;;;9.80;99.90;;;;;;5120966;27;20205;-85
2022/03/19 08:27:19;;;;;;;15.07;4.15;;;9.70;99.90;;;;;;5110387;27;20063;-84
2022/03/19 08:29:45;;;;;;;15.80;4.25;;;9.70;99.90;;;;;;5127391;27;21019;-85
2022/03/19 08:32:10;;;;;;;15.00;3.97;;;9.90;99.90;;;;;;5120371;27;20051;-84
2022/03/19 08:34:37;;;;;;;16.67;4.72;;;9.90;99.90;;;;;;5091362;27;20042;-85
2022/03/19 08:37:04;;;;;;;17.65;4.32;;;9.90;99.90;;;;;;5129044;27;20043;-83
2022/03/19 08:42:14;;;;;;;23.27;4.80;;;10.00;99.90;;;;;;5106756;27;20051;-84
2022/03/19 08:44:40;;;;;;;12.63;3.83;;;10.10;99.90;;;;;;5120068;27;20066;-85
2022/03/19 08:47:06;;;;;;;15.15;4.35;;;10.30;99.90;;;;;;5104733;27;20045;-84
2022/03/19 08:49:31;;;;;;;15.95;4.05;;;10.40;99.90;;;;;;5126449;27;20138;-84
2022/03/19 08:51:57;;;;;;;13.23;4.05;;;10.40;99.90;;;;;;5099689;27;20054;-85
2022/03/19 08:54:23;;;;;;;12.93;3.75;;;10.40;99.90;;;;;;5120741;27;20739;-85
2022/03/19 08:56:50;;;;;;;10.88;3.75;;;10.40;99.90;;;;;;5126613;27;20042;-82
2022/03/19 08:59:17;;;;;;;15.25;3.58;;;10.50;99.90;;;;;;5099991;27;20043;-87
2022/03/19 09:01:44;;;;;;;17.30;4.30;;;10.40;99.90;;;;;;5092522;27;20073;-83
2022/03/19 09:04:11;;;;;;;20.98;4.38;;;10.60;99.90;;;;;;5080568;27;20112;-85
2022/03/19 09:06:38;;;;;;;16.85;3.75;;;10.70;99.90;;;;;;5109373;27;20064;-84
2022/03/19 09:09:05;;;;;;;16.70;3.75;;;11.00;99.90;;;;;;5111006;27;20042;-83
2022/03/19 09:11:32;;;;;;;15.68;4.05;;;10.80;99.90;;;;;;5128549;27;20165;-84
2022/03/19 09:13:59;;;;;;;14.25;3.45;;;10.90;99.90;;;;;;5111454;27;20170;-86
2022/03/19 09:16:25;;;;;;;15.77;3.22;;;10.90;99.90;;;;;;5100827;27;20054;-83
2022/03/19 09:18:51;;;;;;;14.02;3.45;;;11.00;99.90;;;;;;5087284;27;20130;-85
2022/03/19 09:21:19;;;;;;;14.75;3.40;;;11.10;99.90;;;;;;5117916;27;20181;-87
2022/03/19 09:23:49;;;;;;;15.15;3.22;;;11.30;99.90;;;;;;5105173;27;20039;-84
2022/03/19 09:26:18;;;;;;;13.20;3.22;;;11.10;99.90;;;;;;5102439;27;20188;-85
2022/03/19 09:28:48;;;;;;;11.95;2.58;;;11.10;99.90;;;;;;5075895;27;20166;-84
2022/03/19 09:31:16;;;;;;;11.98;2.88;;;11.20;99.90;;;;;;5117771;27;20119;-85
2022/03/19 09:33:45;;;;;;;13.68;3.08;;;11.30;99.90;;;;;;5097129;27;20074;-83
2022/03/19 09:36:11;;;;;;;10.30;2.88;;;11.30;99.90;;;;;;5119445;27;20054;-85
2022/03/19 09:38:37;;;;;;;12.02;2.60;;;11.20;99.90;;;;;;5087106;27;20065;-84
2022/03/19 09:41:03;;;;;;;11.98;2.83;;;11.40;99.90;;;;;;5084455;27;20055;-83
2022/03/19 09:43:29;;;;;;;12.95;2.90;;;11.20;99.90;;;;;;5088429;27;20039;-84
2022/03/19 09:45:55;;;;;;;12.73;2.80;;;11.20;99.90;;;;;;5122781;27;20043;-87
2022/03/19 09:48:21;;;;;;;13.35;2.83;;;11.40;99.50;;;;;;5107316;27;20045;-84
2022/03/19 09:50:53;;;;;;;14.27;3.45;;;11.20;99.70;;;;;;5102520;27;20130;-85
2022/03/19 09:53:20;;;;;;;11.63;2.75;;;11.20;97.50;;;;;;5104215;27;20047;-86
2022/03/19 09:55:46;;;;;;;9.45;2.83;;;11.20;99.10;;;;;;5083085;27;20527;-85
2022/03/19 09:58:13;;;;;;;12.20;3.22;;;11.30;99.90;;;;;;5128978;27;20058;-86
2022/03/19 10:00:39;;;;;;;13.20;2.75;;;11.30;99.40;;;;;;5092252;27;20043;-85
2022/03/19 10:03:08;;;;;;;13.13;2.97;;;11.30;98.80;;;;;;5104034;27;20058;-83
2022/03/19 10:08:36;;;;;;;14.38;3.53;;;11.40;99.10;;;;;;5116207;27;20094;-84
2022/03/19 10:11:05;;;;;;;11.75;2.30;;;11.00;98.90;;;;;;5103235;27;20685;-84
2022/03/19 10:13:31;;;;;;;14.27;3.22;;;11.50;99.90;;;;;;5109545;27;20049;-83
2022/03/19 10:15:57;;;;;;;16.38;3.08;;;11.30;99.70;;;;;;5105695;27;20070;-84
2022/03/19 10:18:30;;;;;;;14.45;3.47;;;11.30;98.60;;;;;;5105606;27;20047;-83
2022/03/19 10:21:01;;;;;;;15.77;4.18;;;11.30;99.50;;;;;;5127851;27;20042;-83
2022/03/19 10:23:37;;;;;;;9.57;2.63;;;11.20;99.40;;;;;;5110649;27;20057;-83
2022/03/19 10:26:06;;;;;;;11.88;2.80;;;11.30;95.90;;;;;;5098767;27;20042;-86
2022/03/19 10:28:36;;;;;;;12.90;2.20;;;11.20;98.50;;;;;;5088594;27;20050;-87
2022/03/19 10:31:02;;;;;;;10.82;3.00;;;11.20;99.70;;;;;;5125195;27;20050;-85
2022/03/19 10:33:33;;;;;;;11.73;2.55;;;11.30;97.80;;;;;;5105849;27;20041;-84
2022/03/19 10:36:11;;;;;;;13.30;2.95;;;11.30;98.50;;;;;;5104680;27;20047;-85
2022/03/19 10:38:42;;;;;;;12.82;2.72;;;11.30;95.50;;;;;;5124904;27;20039;-86
2022/03/19 10:41:08;;;;;;;8.13;2.17;;;11.30;96.20;;;;;;5095694;27;20034;-86
2022/03/19 10:43:34;;;;;;;14.48;2.60;;;11.20;96.40;;;;;;5123964;27;20041;-85
2022/03/19 10:46:02;;;;;;;10.68;2.67;;;11.10;95.40;;;;;;5091530;27;20036;-84
2022/03/19 10:48:29;;;;;;;8.85;2.50;;;11.20;95.90;;;;;;5108560;27;20099;-85
2022/03/19 10:50:55;;;;;;;11.13;2.88;;;11.20;95.80;;;;;;5089242;27;20038;-84
2022/03/19 10:53:23;;;;;;;10.43;2.60;;;11.20;95.30;;;;;;5098483;27;20050;-86
2022/03/19 10:55:48;;;;;;;11.73;2.17;;;11.30;94.70;;;;;;5094233;27;20417;-85
2022/03/19 10:58:14;;;;;;;13.77;2.95;;;11.20;94.80;;;;;;5094198;27;20066;-83
2022/03/19 11:00:41;;;;;;;12.82;2.85;;;11.20;95.70;;;;;;5134342;27;20095;-85
2022/03/19 11:03:27;;;;;;;15.73;3.78;;;11.30;96.50;;;;;;5117414;27;20179;-86
2022/03/19 11:06:04;;;;;;;14.30;2.97;;;11.30;97.10;;;;;;5106400;27;21221;-83
2022/03/19 11:08:33;;;;;;;13.32;2.85;;;11.30;97.10;;;;;;5096537;27;20050;-85
2022/03/19 11:11:00;;;;;;;8.93;2.15;;;11.50;97.70;;;;;;5126606;27;20083;-85
2022/03/19 11:13:30;;;;;;;11.57;2.50;;;11.50;97.20;;;;;;5107065;27;20047;-85
2022/03/19 11:15:59;;;;;;;15.68;3.00;;;11.60;95.70;;;;;;5126598;27;20082;-83
2022/03/19 11:18:26;;;;;;;8.82;1.70;;;11.70;92.50;;;;;;5093674;27;20609;-85
2022/03/19 11:20:53;;;;;;;8.77;1.73;;;11.40;92.50;;;;;;5100935;27;20023;-85
2022/03/19 11:23:26;;;;;;;8.27;1.95;;;11.70;92.00;;;;;;5136345;27;20612;-86
2022/03/19 11:25:54;;;;;;;7.03;1.95;;;11.80;91.70;;;;;;5100681;27;20039;-88
2022/03/19 11:28:21;;;;;;;9.43;1.92;;;12.00;91.80;;;;;;5120155;27;20038;-87
2022/03/19 11:31:09;;;;;;;10.35;1.70;;;12.00;90.90;;;;;;5112516;27;20042;-87
2022/03/19 11:33:36;;;;;;;8.02;1.88;;;12.20;90.60;;;;;;5123966;27;20403;-86
2022/03/19 11:36:10;;;;;;;9.90;2.38;;;12.10;90.70;;;;;;5145724;27;20031;-87
2022/03/19 11:38:50;;;;;;;11.32;2.13;;;12.30;89.80;;;;;;5132545;27;20051;-86
2022/03/19 11:41:23;;;;;;;7.47;1.80;;;12.10;85.80;;;;;;5118091;27;20095;-87
2022/03/19 11:43:49;;;;;;;7.50;1.55;;;12.20;86.40;;;;;;5110711;27;20072;-85
2022/03/19 11:46:16;;;;;;;8.65;1.60;;;12.30;88.20;;;;;;5118370;27;20050;-86
2022/03/19 11:48:46;;;;;;;10.45;2.00;;;12.20;87.10;;;;;;5134759;27;20581;-85
2022/03/19 11:51:14;;;;;;;7.05;1.45;;;12.40;87.80;;;;;;5105450;27;20241;-86
2022/03/19 11:54:15;;;;;;;7.60;1.67;;;12.40;83.70;;;;;;5142391;27;20121;-87
2022/03/19 11:56:40;;;;;;;4.07;1.00;;;12.40;82.00;;;;;;5111920;27;20094;-86
2022/03/19 11:59:21;;;;;;;7.45;1.33;;;12.40;79.50;;;;;;5149437;27;20511;-83
2022/03/19 12:02:00;;;;;;;7.83;1.37;;;12.40;80.30;;;;;;5126706;27;20046;-86
2022/03/19 12:04:39;;;;;;;5.88;1.27;;;12.50;78.30;;;;;;5127548;27;20038;-85
2022/03/19 12:07:05;;;;;;;7.40;1.88;;;12.50;79.90;;;;;;5155555;27;20049;-84
2022/03/19 12:09:40;;;;;;;6.20;1.33;;;12.60;75.90;;;;;;5143502;27;20042;-85
2022/03/19 12:12:23;;;;;;;9.73;1.70;;;12.60;76.40;;;;;;5132415;27;20035;-86
2022/03/19 12:14:50;;;;;;;9.95;1.65;;;12.60;79.90;;;;;;5123224;27;20045;-85
2022/03/19 12:17:28;;;;;;;8.75;1.92;;;12.70;77.20;;;;;;5126443;27;20125;-84
2022/03/19 12:19:58;;;;;;;8.90;1.88;;;12.60;76.70;;;;;;5099242;27;20051;-87
2022/03/19 12:22:36;;;;;;;4.37;1.30;;;13.00;79.40;;;;;;5120617;27;20609;-88
2022/03/19 12:25:18;;;;;;;4.00;1.27;;;12.60;76.10;;;;;;5120202;27;20046;-86
2022/03/19 12:27:55;;;;;;;5.93;1.00;;;12.60;73.80;;;;;;5099968;27;20585;-87
2022/03/19 12:30:25;;;;;;;10.02;1.15;;;12.60;75.90;;;;;;5117262;27;20035;-85
2022/03/19 12:32:56;;;;;;;5.28;1.35;;;12.60;75.70;;;;;;5131426;27;20055;-86
2022/03/19 12:35:26;;;;;;;6.85;1.40;;;12.50;73.00;;;;;;5124916;27;20447;-87
2022/03/19 12:37:56;;;;;;;4.00;1.38;;;12.60;73.30;;;;;;5120938;27;20046;-87
2022/03/19 12:40:24;;;;;;;5.53;1.30;;;12.60;73.10;;;;;;5103310;27;20099;-88
2022/03/19 12:42:54;;;;;;;5.70;1.30;;;12.60;75.80;;;;;;5116412;27;20599;-90
2022/03/19 12:45:40;;;;;;;4.90;1.08;;;12.70;76.90;;;;;;5118666;27;20054;-87
2022/03/19 12:48:19;;;;;;;4.97;1.25;;;12.90;75.50;;;;;;5129819;27;20047;-87
2022/03/19 12:50:54;;;;;;;4.60;1.30;;;12.90;73.80;;;;;;5129704;27;20053;-86
2022/03/19 12:53:35;;;;;;;9.15;1.58;;;12.90;74.20;;;;;;5099540;27;20054;-87
2022/03/19 12:56:10;;;;;;;7.18;1.23;;;12.90;74.60;;;;;;5100770;27;20133;-88
2022/03/19 12:58:40;;;;;;;5.15;1.25;;;12.90;74.00;;;;;;5132506;27;20050;-86
2022/03/19 13:01:08;;;;;;;7.85;1.20;;;12.90;74.70;;;;;;5130376;27;20053;-85
2022/03/19 13:03:34;;;;;;;6.35;1.20;;;13.00;75.70;;;;;;5135537;27;20042;-87